createdAt,value
2018-09-22T00:02:05.150Z,62.80
2018-09-22T00:04:34.804Z,63.54
2018-09-22T00:07:04.647Z,64.60
2018-09-22T00:09:34.472Z,64.15
2018-09-22T00:12:04.478Z,63.57
2018-09-22T00:14:34.210Z,64.08
2018-09-22T00:17:04.357Z,64.64
2018-09-22T00:19:34.208Z,64.74
2018-09-22T00:22:04.010Z,64.60
2018-09-22T00:24:33.664Z,64.28
2018-09-22T00:27:03.355Z,64.76
2018-09-22T00:29:33.138Z,64.90
2018-09-22T00:32:02.889Z,64.83
2018-09-22T00:34:32.503Z,64.98
2018-09-22T00:37:02.204Z,65.20
2018-09-22T00:39:31.874Z,64.85
2018-09-22T00:42:02.448Z,64.56
2018-09-22T00:44:32.169Z,65.13
2018-09-22T00:47:01.704Z,64.74
2018-09-22T00:49:31.199Z,65.00
2018-09-22T00:52:00.883Z,64.98
2018-09-22T00:54:30.504Z,65.55
2018-09-22T00:57:00.106Z,65.82
2018-09-22T00:59:29.690Z,65.75
2018-09-22T01:01:59.178Z,65.75
2018-09-22T01:04:28.820Z,65.80
2018-09-22T01:06:58.440Z,65.93
2018-09-22T01:09:28.210Z,66.18
2018-09-22T01:11:57.774Z,65.82
2018-09-22T01:14:27.506Z,66.33
2018-09-22T01:16:57.165Z,66.45
2018-09-22T01:19:26.826Z,67.13
2018-09-22T01:21:56.492Z,66.40
2018-09-22T01:24:26.103Z,66.67
2018-09-22T01:26:55.820Z,66.82
2018-09-22T01:29:25.396Z,66.44
2018-09-22T01:31:55.016Z,66.52
2018-09-22T01:34:24.624Z,66.20
2018-09-22T01:36:54.242Z,66.03
2018-09-22T01:39:23.812Z,66.24
2018-09-22T01:41:53.443Z,65.97
2018-09-22T01:44:23.079Z,65.22
2018-09-22T01:46:52.600Z,65.36
2018-09-22T01:49:22.132Z,65.52
2018-09-22T01:51:51.720Z,65.74
2018-09-22T01:54:21.396Z,66.31
2018-09-22T01:56:51.003Z,66.48
2018-09-22T01:59:20.658Z,66.10
2018-09-22T02:01:50.174Z,66.65
2018-09-22T02:04:19.725Z,66.86
2018-09-22T02:06:49.382Z,67.25
2018-09-22T02:09:18.888Z,67.02
2018-09-22T02:11:48.484Z,67.04
2018-09-22T02:14:18.179Z,67.04
2018-09-22T02:16:47.742Z,67.07
2018-09-22T02:19:17.402Z,67.11
2018-09-22T02:21:47.169Z,66.04
2018-09-22T02:24:16.725Z,67.15
2018-09-22T02:26:46.285Z,67.84
2018-09-22T02:29:15.888Z,68.01
2018-09-22T02:31:45.454Z,67.55
2018-09-22T02:34:15.277Z,67.42
2018-09-22T02:36:44.888Z,68.25
2018-09-22T02:39:14.322Z,68.29
2018-09-22T02:41:44.061Z,68.54
2018-09-22T02:44:13.797Z,68.94
2018-09-22T02:51:35.861Z,69.92
2018-09-22T02:54:05.476Z,70.36
2018-09-22T02:56:35.149Z,70.30
2018-09-22T02:59:04.872Z,70.33
2018-09-22T03:01:34.544Z,70.38
2018-09-22T03:04:04.290Z,70.32
2018-09-22T03:06:34.036Z,70.84
2018-09-22T03:09:03.861Z,70.71
2018-09-22T03:11:33.565Z,69.78
2018-09-22T03:14:03.226Z,69.87
2018-09-22T03:16:32.849Z,69.50
2018-09-22T03:19:02.606Z,69.68
2018-09-22T03:21:32.074Z,69.52
2018-09-22T03:24:02.853Z,68.92
2018-09-22T03:26:32.464Z,68.84
2018-09-22T03:29:02.095Z,69.63
2018-09-22T03:31:31.673Z,70.38
2018-09-22T03:34:01.266Z,70.89
2018-09-22T03:36:30.912Z,71.20
2018-09-22T03:39:00.502Z,71.05
2018-09-22T03:41:30.249Z,71.74
2018-09-22T03:43:59.805Z,71.27
2018-09-22T03:46:29.460Z,71.68
2018-09-22T03:48:59.229Z,71.75
2018-09-22T03:51:28.821Z,71.67
2018-09-22T03:53:58.354Z,71.76
2018-09-22T03:56:28.025Z,72.38
2018-09-22T03:58:57.686Z,72.49
2018-09-22T04:01:27.266Z,72.27
2018-09-22T04:03:57.027Z,72.44
2018-09-22T04:06:26.692Z,72.37
2018-09-22T04:08:56.374Z,72.24
2018-09-22T04:11:26.195Z,71.69
2018-09-22T04:13:55.811Z,72.01
2018-09-22T04:16:25.309Z,71.92
2018-09-22T04:18:54.906Z,71.74
2018-09-22T04:21:24.636Z,71.97
2018-09-22T04:23:54.276Z,72.07
2018-09-22T04:26:23.924Z,72.12
2018-09-22T04:28:53.670Z,71.70
2018-09-22T04:31:23.320Z,71.94
2018-09-22T04:33:53.314Z,71.88
2018-09-22T04:36:22.983Z,71.90
2018-09-22T04:38:52.589Z,71.45
2018-09-22T04:41:22.299Z,71.98
2018-09-22T04:43:51.931Z,70.43
2018-09-22T04:46:21.656Z,69.87
2018-09-22T04:48:51.273Z,69.29
2018-09-22T04:51:21.285Z,67.61
2018-09-22T04:53:50.858Z,65.45
2018-09-22T04:56:20.376Z,64.17
2018-09-22T04:58:50.040Z,62.78
2018-09-22T05:01:19.679Z,61.13
2018-09-22T05:03:49.444Z,59.31
2018-09-22T05:06:18.980Z,56.80
2018-09-22T05:08:48.671Z,54.97
2018-09-22T05:11:18.318Z,53.22
2018-09-22T05:13:47.848Z,52.31
2018-09-22T05:16:17.562Z,50.92
2018-09-22T05:18:47.326Z,49.35
2018-09-22T05:21:16.896Z,49.43
2018-09-22T05:23:46.501Z,49.27
2018-09-22T05:26:16.129Z,48.35
2018-09-22T05:28:45.795Z,47.63
2018-09-22T05:31:15.438Z,46.94
2018-09-22T05:33:45.046Z,45.74
2018-09-22T05:36:14.762Z,44.96
2018-09-22T05:38:44.341Z,44.54
2018-09-22T05:41:14.080Z,43.08
2018-09-22T05:43:43.800Z,42.66
2018-09-22T05:46:14.144Z,42.27
2018-09-22T05:48:43.689Z,41.73
2018-09-22T05:51:13.316Z,41.37
2018-09-22T05:53:43.052Z,41.96
2018-09-22T05:56:12.639Z,41.46
2018-09-22T05:58:42.375Z,40.32
2018-09-22T06:01:11.989Z,39.66
2018-09-22T06:03:42.580Z,40.18
2018-09-22T06:06:12.296Z,39.80
2018-09-22T06:08:41.963Z,38.76
2018-09-22T06:11:11.558Z,38.12
2018-09-22T06:13:41.257Z,37.09
2018-09-22T06:16:11.044Z,37.67
2018-09-22T06:18:40.705Z,37.04
2018-09-22T06:21:10.370Z,36.96
2018-09-22T06:23:39.939Z,36.41
2018-09-22T06:26:09.468Z,34.84
2018-09-22T06:28:39.060Z,34.50
2018-09-22T06:31:08.567Z,34.90
2018-09-22T06:33:38.120Z,34.41
2018-09-22T06:36:07.977Z,35.24
2018-09-22T06:38:37.619Z,34.40
2018-09-22T06:41:07.335Z,33.00
2018-09-22T06:43:36.912Z,33.89
2018-09-22T06:46:06.523Z,32.21
2018-09-22T06:48:36.218Z,32.37
2018-09-22T06:51:06.079Z,33.95
2018-09-22T06:53:35.942Z,32.79
2018-09-22T06:56:05.688Z,31.37
2018-09-22T06:58:35.608Z,31.72
2018-09-22T07:01:05.148Z,31.03
2018-09-22T07:03:34.781Z,32.01
2018-09-22T07:06:04.445Z,32.20
2018-09-22T07:08:33.960Z,32.04
2018-09-22T07:11:03.574Z,30.80
2018-09-22T07:13:33.437Z,30.88
2018-09-22T07:16:03.021Z,30.87
2018-09-22T07:18:32.764Z,31.10
2018-09-22T07:21:09.423Z,31.06
2018-09-22T07:23:39.131Z,29.73
2018-09-22T07:26:08.691Z,29.41
2018-09-22T07:28:38.319Z,28.68
2018-09-22T07:31:08.078Z,28.81
2018-09-22T07:33:37.574Z,28.11
2018-09-22T07:36:07.134Z,27.81
2018-09-22T07:38:36.762Z,28.60
2018-09-22T07:41:06.219Z,26.57
2018-09-22T07:43:35.527Z,27.06
2018-09-22T07:46:04.899Z,27.41
2018-09-22T07:48:34.292Z,26.79
2018-09-22T07:51:03.651Z,27.34
2018-09-22T07:53:32.967Z,28.12
2018-09-22T07:56:02.503Z,27.79
2018-09-22T07:58:31.924Z,26.23
2018-09-22T08:01:01.425Z,28.25
2018-09-22T08:03:31.226Z,27.40
2018-09-22T08:06:00.600Z,26.63
2018-09-22T08:08:29.922Z,26.92
2018-09-22T08:10:59.304Z,27.47
2018-09-22T08:13:29.140Z,26.87
2018-09-22T08:15:58.619Z,27.10
2018-09-22T08:18:27.979Z,26.60
2018-09-22T08:20:57.436Z,27.08
2018-09-22T08:23:27.172Z,26.61
2018-09-22T08:25:56.685Z,25.77
2018-09-22T08:28:26.375Z,26.17
2018-09-22T08:30:55.978Z,25.53
2018-09-22T08:33:25.771Z,25.24
2018-09-22T08:35:55.500Z,23.22
2018-09-22T08:38:24.971Z,24.07
2018-09-22T08:40:54.696Z,24.91
2018-09-22T08:43:24.268Z,24.86
2018-09-22T08:45:53.990Z,24.26
2018-09-22T08:48:23.620Z,23.79
2018-09-22T08:50:53.316Z,23.88
2018-09-22T08:53:22.964Z,24.66
2018-09-22T08:55:52.386Z,24.87
2018-09-22T08:58:21.922Z,24.82
2018-09-22T09:00:51.314Z,23.56
2018-09-22T09:03:20.835Z,23.31
2018-09-22T09:05:50.299Z,24.59
2018-09-22T09:08:19.998Z,24.95
2018-09-22T09:10:49.757Z,24.10
2018-09-22T09:13:19.309Z,24.46
2018-09-22T09:15:49.011Z,24.17
2018-09-22T09:18:18.650Z,23.88
2018-09-22T09:20:48.193Z,24.43
2018-09-22T09:23:19.455Z,23.97
2018-09-22T09:25:49.171Z,22.85
2018-09-22T09:28:18.884Z,22.65
2018-09-22T09:30:48.489Z,22.64
2018-09-22T09:33:18.253Z,23.06
2018-09-22T09:35:47.934Z,21.16
2018-09-22T09:38:17.600Z,22.88
2018-09-22T09:40:47.250Z,22.90
2018-09-22T09:43:17.009Z,21.72
2018-09-22T09:45:46.615Z,21.59
2018-09-22T09:48:16.213Z,21.20
2018-09-22T09:50:45.828Z,21.16
2018-09-22T09:53:15.644Z,21.30
2018-09-22T09:55:45.219Z,20.88
2018-09-22T09:58:14.926Z,22.14
2018-09-22T10:00:45.734Z,22.35
2018-09-22T10:03:17.000Z,22.88
2018-09-22T10:05:46.791Z,22.65
2018-09-22T10:08:16.874Z,24.04
2018-09-22T10:10:47.121Z,22.68
2018-09-22T10:13:16.667Z,21.54
2018-09-22T10:15:46.268Z,20.48
2018-09-22T10:18:15.643Z,21.16
2018-09-22T10:20:45.027Z,22.23
2018-09-22T10:23:14.396Z,20.84
2018-09-22T10:25:43.826Z,22.52
2018-09-22T10:28:14.173Z,23.51
2018-09-22T10:30:43.834Z,20.62
2018-09-22T10:33:13.096Z,20.09
2018-09-22T10:35:42.450Z,20.26
2018-09-22T10:38:12.173Z,18.85
2018-09-22T10:40:41.782Z,20.24
2018-09-22T10:43:11.204Z,20.37
2018-09-22T10:45:41.302Z,18.95
2018-09-22T10:48:10.871Z,19.73
2018-09-22T10:50:40.220Z,20.48
2018-09-22T10:53:09.885Z,20.28
2018-09-22T10:55:39.503Z,20.12
2018-09-22T10:58:09.125Z,20.52
2018-09-22T11:00:38.693Z,20.11
2018-09-22T11:03:08.372Z,20.46
2018-09-22T11:05:38.044Z,19.16
2018-09-22T11:08:08.463Z,18.31
2018-09-22T11:10:38.060Z,19.27
2018-09-22T11:13:07.461Z,20.44
2018-09-22T11:15:37.177Z,20.71
2018-09-22T11:18:07.008Z,21.65
2018-09-22T11:20:36.639Z,19.43
2018-09-22T11:23:06.248Z,19.19
2018-09-22T11:25:35.646Z,20.50
2018-09-22T11:28:05.294Z,19.95
2018-09-22T11:30:34.850Z,20.39
2018-09-22T11:33:04.657Z,19.61
2018-09-22T11:35:34.359Z,19.04
2018-09-22T11:38:04.149Z,17.82
2018-09-22T11:40:33.538Z,17.82
2018-09-22T11:43:03.225Z,17.94
2018-09-22T11:45:32.811Z,17.82
2018-09-22T11:48:02.263Z,19.50
2018-09-22T11:50:31.846Z,18.24
2018-09-22T11:53:01.219Z,18.02
2018-09-22T11:55:30.973Z,19.14
2018-09-22T11:58:00.279Z,20.69
2018-09-22T12:00:29.654Z,20.48
2018-09-22T12:02:59.227Z,21.86
2018-09-22T12:05:28.870Z,22.02
2018-09-22T12:07:58.428Z,21.99
2018-09-22T12:10:27.975Z,22.49
2018-09-22T12:12:57.554Z,23.38
2018-09-22T12:15:27.232Z,22.93
2018-09-22T12:17:56.568Z,23.49
2018-09-22T12:20:25.925Z,23.44
2018-09-22T12:22:55.587Z,23.01
2018-09-22T12:25:25.235Z,23.71
2018-09-22T12:27:54.639Z,23.03
2018-09-22T12:30:23.993Z,22.58
2018-09-22T12:32:53.691Z,23.52
2018-09-22T12:35:23.559Z,22.71
2018-09-22T12:37:53.422Z,23.45
2018-09-22T12:40:22.768Z,22.96
2018-09-22T12:42:52.435Z,23.80
2018-09-22T12:45:22.102Z,23.30
2018-09-22T12:47:51.722Z,23.71
2018-09-22T12:50:21.372Z,24.22
2018-09-22T12:52:50.929Z,23.49
2018-09-22T12:55:20.610Z,23.81
2018-09-22T12:57:50.036Z,23.19
2018-09-22T13:00:19.496Z,23.32
2018-09-22T13:02:49.863Z,23.44
2018-09-22T13:05:19.423Z,23.95
2018-09-22T13:07:49.122Z,23.52
2018-09-22T13:10:18.780Z,23.96
2018-09-22T13:12:48.375Z,24.34
2018-09-22T13:15:18.009Z,24.08
2018-09-22T13:17:47.302Z,24.44
2018-09-22T13:20:16.956Z,24.26
2018-09-22T13:22:46.555Z,24.03
2018-09-22T13:25:16.219Z,24.68
2018-09-22T13:27:45.956Z,24.36
2018-09-22T13:30:15.592Z,25.03
2018-09-22T13:32:45.273Z,24.83
2018-09-22T13:35:14.843Z,23.89
2018-09-22T13:37:44.505Z,24.00
2018-09-22T13:40:14.080Z,24.48
2018-09-22T13:42:43.609Z,24.30
2018-09-22T13:45:13.119Z,24.51
2018-09-22T13:47:42.789Z,24.50
2018-09-22T13:50:12.066Z,24.51
2018-09-22T13:52:41.508Z,24.82
2018-09-22T13:55:11.148Z,25.08
2018-09-22T13:57:40.739Z,24.56
2018-09-22T14:00:10.476Z,25.31
2018-09-22T14:02:39.790Z,25.27
2018-09-22T14:05:09.470Z,24.97
2018-09-22T14:07:39.107Z,24.36
2018-09-22T14:10:08.912Z,24.09
2018-09-22T14:12:38.211Z,24.46
2018-09-22T14:15:07.527Z,24.33
2018-09-22T14:17:36.812Z,24.75
2018-09-22T14:20:06.304Z,25.23
2018-09-22T14:22:35.980Z,24.89
2018-09-22T14:25:05.575Z,24.92
2018-09-22T14:27:34.971Z,25.27
2018-09-22T14:30:04.342Z,24.83
2018-09-22T14:32:33.619Z,24.69
2018-09-22T14:35:03.005Z,25.71
2018-09-22T14:37:32.602Z,24.95
2018-09-22T14:40:02.184Z,25.73
2018-09-22T14:42:31.593Z,25.53
2018-09-22T14:45:00.849Z,25.46
2018-09-22T14:47:30.404Z,25.94
2018-09-22T14:50:00.156Z,25.25
2018-09-22T14:52:29.719Z,25.77
2018-09-22T14:54:59.021Z,26.56
2018-09-22T14:57:28.763Z,26.65
2018-09-22T14:59:58.222Z,26.08
2018-09-22T15:02:27.914Z,26.89
2018-09-22T15:04:57.442Z,26.61
2018-09-22T15:07:27.053Z,26.79
2018-09-22T15:09:56.619Z,26.02
2018-09-22T15:12:26.118Z,26.55
2018-09-22T15:14:55.890Z,26.13
2018-09-22T15:17:25.409Z,26.81
2018-09-22T15:19:54.759Z,26.70
2018-09-22T15:22:24.336Z,26.71
2018-09-22T15:24:54.019Z,27.27
2018-09-22T15:27:23.602Z,27.30
2018-09-22T15:29:53.159Z,26.86
2018-09-22T15:32:22.730Z,26.88
2018-09-22T15:34:51.980Z,27.47
2018-09-22T15:37:22.432Z,27.19
2018-09-22T15:39:51.996Z,28.00
2018-09-22T15:42:21.640Z,28.68
2018-09-22T15:44:51.022Z,28.96
2018-09-22T15:47:20.348Z,30.13
2018-09-22T15:49:49.628Z,29.84
2018-09-22T15:52:19.316Z,30.21
2018-09-22T15:54:48.966Z,30.47
2018-09-22T15:57:18.279Z,30.82
2018-09-22T15:59:47.647Z,30.94
2018-09-22T16:02:17.876Z,31.05
2018-09-22T16:04:47.529Z,31.12
2018-09-22T16:07:18.042Z,32.65
2018-09-22T16:09:47.797Z,31.99
2018-09-22T16:12:18.596Z,32.73
2018-09-22T16:14:49.523Z,33.17
2018-09-22T16:17:19.084Z,33.16
2018-09-22T16:19:48.596Z,33.14
2018-09-22T16:22:18.591Z,33.56
2018-09-22T16:24:48.104Z,34.52
2018-09-22T16:27:17.484Z,34.11
2018-09-22T16:29:46.696Z,34.61
2018-09-22T16:32:15.962Z,34.25
2018-09-22T16:34:45.343Z,34.74
2018-09-22T16:37:15.072Z,34.67
2018-09-22T16:39:44.534Z,35.05
2018-09-22T16:42:13.860Z,35.42
2018-09-22T16:44:43.116Z,35.95
2018-09-22T16:47:12.657Z,36.41
2018-09-22T16:49:41.857Z,36.98
2018-09-22T16:52:12.471Z,36.63
2018-09-22T16:54:42.814Z,37.19
2018-09-22T16:57:12.494Z,38.35
2018-09-22T16:59:42.118Z,38.32
2018-09-22T17:02:11.728Z,37.89
2018-09-22T17:04:41.401Z,38.81
2018-09-22T17:07:11.996Z,38.96
2018-09-22T17:09:41.310Z,39.21
2018-09-22T17:12:10.747Z,39.34
2018-09-22T17:14:40.411Z,40.08
2018-09-22T17:17:09.796Z,40.18
2018-09-22T17:19:39.101Z,40.08
2018-09-22T17:22:08.446Z,40.92
2018-09-22T17:24:37.898Z,41.69
2018-09-22T17:27:07.506Z,41.79
2018-09-22T17:29:37.083Z,41.96
2018-09-22T17:32:07.056Z,42.08
2018-09-22T17:34:36.411Z,42.25
2018-09-22T17:37:05.787Z,42.20
2018-09-22T17:39:35.037Z,42.04
2018-09-22T17:42:04.646Z,42.38
2018-09-22T17:44:34.081Z,42.74
2018-09-22T17:47:03.298Z,42.56
2018-09-22T17:49:32.741Z,42.25
2018-09-22T17:52:02.064Z,42.32
2018-09-22T17:54:31.325Z,42.58
2018-09-22T17:57:01.000Z,42.39
2018-09-22T17:59:31.320Z,42.46
2018-09-22T18:02:01.121Z,42.09
2018-09-22T18:04:30.428Z,42.67
2018-09-22T18:06:59.875Z,43.50
2018-09-22T18:09:29.430Z,43.40
2018-09-22T18:11:58.923Z,43.95
2018-09-22T18:14:28.368Z,44.12
2018-09-22T18:16:57.696Z,44.38
2018-09-22T18:19:26.990Z,44.48
2018-09-22T18:21:56.592Z,44.92
2018-09-22T18:24:25.911Z,44.86
2018-09-22T18:26:55.447Z,45.66
2018-09-22T18:29:24.939Z,45.46
2018-09-22T18:31:54.371Z,46.07
2018-09-22T18:34:23.975Z,46.44
2018-09-22T18:36:53.271Z,46.10
2018-09-22T18:39:22.577Z,46.10
2018-09-22T18:41:51.892Z,46.75
2018-09-22T18:44:21.166Z,46.33
2018-09-22T18:46:50.447Z,46.59
2018-09-22T18:49:19.982Z,46.86
2018-09-22T18:51:49.317Z,46.93
2018-09-22T18:54:18.778Z,47.31
2018-09-22T18:56:48.153Z,47.10
2018-09-22T18:59:17.642Z,47.51
2018-09-22T19:01:47.166Z,47.33
2018-09-22T19:04:16.805Z,47.31
2018-09-22T19:06:46.081Z,47.16
2018-09-22T19:09:15.479Z,47.74
2018-09-22T19:11:44.784Z,47.51
2018-09-22T19:14:22.392Z,47.64
2018-09-22T19:16:55.962Z,47.66
2018-09-22T19:19:31.485Z,47.51
2018-09-22T19:22:04.697Z,46.53
2018-09-22T19:24:53.451Z,45.56
2018-09-22T19:27:27.914Z,45.00
2018-09-22T19:30:02.567Z,45.49
2018-09-22T19:32:36.732Z,45.77
2018-09-22T19:35:12.228Z,45.23
2018-09-22T19:37:44.580Z,44.90
2018-09-22T19:40:17.406Z,44.91
2018-09-22T19:42:51.895Z,44.58
2018-09-22T19:45:28.136Z,45.31
2018-09-22T19:48:04.217Z,47.14
2018-09-22T19:55:36.085Z,48.85
2018-09-22T19:58:05.475Z,48.75
2018-09-22T20:00:34.909Z,48.51
2018-09-22T20:03:04.556Z,47.63
2018-09-22T20:05:34.168Z,48.67
2018-09-22T20:08:03.695Z,49.21
2018-09-22T20:10:33.177Z,49.44
2018-09-22T20:13:02.569Z,49.62
2018-09-22T20:15:32.190Z,48.74
2018-09-22T20:18:01.780Z,49.30
2018-09-22T20:20:31.420Z,49.29
2018-09-22T20:23:00.895Z,50.47
2018-09-22T20:25:30.446Z,50.07
2018-09-22T20:27:59.860Z,49.82
2018-09-22T20:30:29.524Z,49.63
2018-09-22T20:32:59.528Z,48.91
2018-09-22T20:35:29.176Z,49.00
2018-09-22T20:37:58.778Z,49.60
2018-09-22T20:40:28.426Z,50.09
2018-09-22T20:42:57.917Z,50.31
2018-09-22T20:45:27.499Z,50.32
2018-09-22T20:47:56.932Z,50.56
2018-09-22T20:50:26.396Z,51.09
2018-09-22T20:52:55.862Z,51.58
2018-09-22T20:55:25.252Z,51.41
2018-09-22T20:57:55.037Z,50.88
2018-09-22T21:00:24.615Z,51.10
2018-09-22T21:02:54.287Z,51.95
2018-09-22T21:05:23.816Z,52.45
2018-09-22T21:07:53.572Z,52.18
2018-09-22T21:10:23.123Z,52.32
2018-09-22T21:12:52.592Z,52.01
2018-09-22T21:15:22.134Z,51.71
2018-09-22T21:17:51.748Z,50.84
2018-09-22T21:20:21.323Z,51.41
2018-09-22T21:22:50.943Z,50.85
2018-09-22T21:25:20.583Z,52.28
2018-09-22T21:27:50.090Z,51.88
2018-09-22T21:30:19.638Z,51.61
2018-09-22T21:32:49.227Z,50.46
2018-09-22T21:35:18.772Z,51.80
2018-09-22T21:37:48.332Z,52.47
2018-09-22T21:40:17.917Z,52.89
2018-09-22T21:42:47.463Z,52.95
2018-09-22T21:45:16.952Z,53.41
2018-09-22T21:47:46.765Z,53.78
2018-09-22T21:50:16.334Z,53.70
2018-09-22T21:52:45.880Z,53.59
2018-09-22T21:55:15.412Z,54.15
2018-09-22T21:57:44.956Z,54.22
2018-09-22T22:00:14.345Z,54.35
2018-09-22T22:02:44.002Z,54.44
2018-09-22T22:05:13.538Z,54.83
2018-09-22T22:07:43.195Z,55.19
2018-09-22T22:10:12.813Z,55.57
2018-09-22T22:12:42.529Z,56.43
2018-09-22T22:15:12.058Z,56.24
2018-09-22T22:17:41.623Z,55.78
2018-09-22T22:20:11.146Z,54.96
2018-09-22T22:22:40.706Z,55.28
2018-09-22T22:25:11.091Z,55.63
2018-09-22T22:27:40.622Z,55.80
2018-09-22T22:30:11.512Z,56.95
2018-09-22T22:32:40.968Z,57.21
2018-09-22T22:35:10.743Z,57.41
2018-09-22T22:37:40.205Z,57.00
2018-09-22T22:40:09.813Z,56.91
2018-09-22T22:42:39.534Z,57.25
2018-09-22T22:45:09.511Z,56.97
2018-09-22T22:47:38.955Z,56.62
2018-09-22T22:50:08.018Z,56.49
2018-09-22T22:52:37.475Z,57.14
2018-09-22T22:55:07.220Z,56.67
2018-09-22T22:57:36.784Z,57.02
2018-09-22T23:00:07.756Z,57.36
2018-09-22T23:02:37.405Z,57.66
2018-09-22T23:05:07.243Z,58.72
2018-09-22T23:07:36.923Z,58.23
2018-09-22T23:10:06.560Z,58.26
2018-09-22T23:12:36.262Z,58.36
2018-09-22T23:15:06.031Z,58.73
2018-09-22T23:17:36.592Z,59.04
2018-09-22T23:20:06.315Z,58.73
2018-09-22T23:22:36.836Z,59.85
2018-09-22T23:25:06.414Z,59.09
2018-09-22T23:27:36.003Z,59.16
2018-09-22T23:30:05.845Z,59.12
2018-09-22T23:32:35.403Z,60.30
2018-09-22T23:35:04.971Z,60.50
2018-09-22T23:37:34.615Z,60.16
2018-09-22T23:40:04.739Z,60.47
2018-09-22T23:42:34.394Z,61.57
2018-09-22T23:45:04.007Z,61.88
2018-09-22T23:47:33.518Z,62.48
2018-09-22T23:50:02.931Z,62.01
2018-09-22T23:52:33.178Z,61.86
2018-09-22T23:55:02.691Z,62.38
2018-09-22T23:57:32.452Z,62.72
